Time;durP1;ratioP1;P1;durP2;ratioP2;P2;SDS_P1;SDS_P2;PMS_P1;PMS_P2;Temp;Humidity;BMP_temperature;BMP_pressure;BME280_temperature;BME280_humidity;BME280_pressure;Samples;Min_cycle;Max_cycle;Signal;HPM_P1;HPM_P2
2022/03/20 00:01:03;;;;;;;21.23;14.45;;;;;;;7.94;38.67;101901.38;4162556;28;20045;-67
2022/03/20 00:03:09;;;;;;;20.90;13.88;;;;;;;7.96;38.80;101902.38;4137260;28;20056;-67
2022/03/20 00:05:12;;;;;;;24.88;14.10;;;;;;;7.94;38.55;101896.22;4160078;28;20049;-67
2022/03/20 00:07:15;;;;;;;21.55;14.38;;;;;;;8.11;38.12;101894.44;4160692;28;20042;-67
2022/03/20 00:09:19;;;;;;;21.65;14.48;;;;;;;7.88;38.49;101890.75;4147925;28;20038;-67
2022/03/20 00:11:22;;;;;;;18.57;14.30;;;;;;;7.84;38.24;101897.50;4155962;28;20068;-67
2022/03/20 00:13:24;;;;;;;18.77;13.38;;;;;;;7.79;38.28;101887.72;4141297;28;20289;-67
2022/03/20 00:15:28;;;;;;;21.15;13.07;;;;;;;7.74;38.76;101886.59;4147784;28;20229;-67
2022/03/20 00:17:31;;;;;;;19.90;12.40;;;;;;;7.82;38.19;101890.44;4162462;28;20045;-68
2022/03/20 00:19:34;;;;;;;21.67;14.77;;;;;;;7.84;37.77;101881.03;4145904;28;20073;-67
2022/03/20 00:21:36;;;;;;;19.73;14.82;;;;;;;7.77;38.00;101876.38;4163764;28;20087;-67
2022/03/20 00:23:39;;;;;;;19.75;13.65;;;;;;;7.83;38.35;101863.75;4147021;28;20092;-67
2022/03/20 00:25:45;;;;;;;24.88;13.98;;;;;;;7.80;37.71;101867.09;4146840;28;20049;-67
2022/03/20 00:27:48;;;;;;;19.23;13.00;;;;;;;7.64;38.15;101869.75;4162686;28;20049;-67
2022/03/20 00:29:51;;;;;;;19.30;13.00;;;;;;;7.58;38.72;101865.16;4162548;28;20041;-67
2022/03/20 00:31:54;;;;;;;18.98;13.15;;;;;;;7.65;38.35;101864.66;4163132;28;20095;-67
2022/03/20 00:33:57;;;;;;;21.25;13.77;;;;;;;7.78;37.71;101862.63;4156007;28;20534;-67
2022/03/20 00:36:00;;;;;;;20.15;13.75;;;;;;;7.74;37.94;101865.88;4156865;28;20565;-67
2022/03/20 00:38:03;;;;;;;18.55;13.85;;;;;;;7.77;38.03;101861.75;4153577;28;20072;-67
2022/03/20 00:40:07;;;;;;;21.70;13.43;;;;;;;7.78;38.11;101853.19;4158914;28;20033;-66
2022/03/20 00:42:11;;;;;;;18.80;13.32;;;;;;;7.65;38.23;101851.69;4149634;28;20046;-67
2022/03/20 00:44:14;;;;;;;19.88;13.77;;;;;;;7.71;38.92;101851.13;4150650;28;20053;-67
2022/03/20 00:46:17;;;;;;;18.73;13.00;;;;;;;7.61;38.66;101843.72;4160525;28;20123;-67
2022/03/20 00:48:20;;;;;;;23.90;14.68;;;;;;;7.71;38.46;101839.84;4145572;28;20050;-67
2022/03/20 00:50:23;;;;;;;21.50;14.25;;;;;;;7.55;38.51;101843.41;4155468;28;20100;-67
2022/03/20 00:52:26;;;;;;;19.55;13.93;;;;;;;7.49;38.89;101843.97;4159825;28;20056;-67
2022/03/20 00:54:29;;;;;;;26.00;14.38;;;;;;;7.50;38.85;101844.09;4163403;28;20052;-67
2022/03/20 00:56:31;;;;;;;18.15;13.27;;;;;;;7.48;39.37;101842.22;4146437;28;20046;-67
2022/03/20 00:58:35;;;;;;;18.95;13.82;;;;;;;7.50;39.03;101840.59;4159307;28;20092;-67
2022/03/20 01:00:38;;;;;;;23.83;13.57;;;;;;;7.49;39.26;101842.31;4155231;28;20046;-67
2022/03/20 01:02:42;;;;;;;19.48;14.75;;;;;;;7.46;38.88;101838.66;4147082;28;20120;-67
2022/03/20 01:04:45;;;;;;;18.70;13.52;;;;;;;7.53;38.68;101847.63;4158018;28;20454;-67
2022/03/20 01:06:48;;;;;;;20.10;14.75;;;;;;;7.52;38.81;101844.16;4152463;28;20038;-67
2022/03/20 01:08:52;;;;;;;20.42;14.00;;;;;;;7.46;38.83;101843.84;4159741;28;20037;-67
2022/03/20 01:10:55;;;;;;;17.17;12.05;;;;;;;7.40;38.95;101838.38;4162685;28;20065;-67
2022/03/20 01:12:57;;;;;;;22.83;13.70;;;;;;;7.39;40.05;101847.84;4145611;28;20073;-67
2022/03/20 01:15:02;;;;;;;18.55;12.85;;;;;;;7.39;39.64;101836.59;4154077;28;20045;-67
2022/03/20 01:17:05;;;;;;;18.92;11.77;;;;;;;7.37;39.74;101838.22;4132768;28;20124;-67
2022/03/20 01:19:08;;;;;;;22.33;13.90;;;;;;;7.33;40.26;101837.19;4169554;28;20106;-67
2022/03/20 01:21:12;;;;;;;18.88;12.52;;;;;;;7.28;39.85;101834.34;4167450;28;20034;-67
2022/03/20 01:23:16;;;;;;;20.33;13.30;;;;;;;7.29;39.51;101833.53;4163115;28;20042;-67
2022/03/20 01:25:19;;;;;;;20.30;13.43;;;;;;;7.27;40.42;101829.09;4148734;28;20300;-67
2022/03/20 01:27:22;;;;;;;18.35;13.25;;;;;;;7.26;40.62;101838.56;4149449;28;20293;-67
2022/03/20 01:29:25;;;;;;;20.35;12.95;;;;;;;7.16;40.39;101833.75;4163161;28;20054;-67
2022/03/20 01:31:29;;;;;;;19.08;13.32;;;;;;;7.16;40.46;101829.47;4156195;28;20100;-67
2022/03/20 01:33:35;;;;;;;23.23;14.05;;;;;;;7.10;40.68;101829.16;4161134;28;20076;-67
2022/03/20 01:35:38;;;;;;;22.17;14.20;;;;;;;7.15;40.20;101827.69;4147874;28;20042;-67
2022/03/20 01:37:42;;;;;;;21.33;14.50;;;;;;;7.34;39.55;101824.34;4134220;28;20069;-67
2022/03/20 01:39:45;;;;;;;21.02;13.85;;;;;;;7.25;39.95;101822.97;4160030;28;20045;-67
2022/03/20 01:41:48;;;;;;;24.55;14.85;;;;;;;7.20;39.89;101821.84;4162450;28;20426;-67
2022/03/20 01:43:52;;;;;;;21.15;14.05;;;;;;;7.13;40.95;101812.91;4154813;28;20046;-67
2022/03/20 01:45:54;;;;;;;20.63;13.95;;;;;;;7.09;41.08;101817.03;4156362;28;20129;-68
2022/03/20 01:47:59;;;;;;;21.88;14.45;;;;;;;7.07;41.19;101810.91;4151188;28;20042;-67
2022/03/20 01:50:01;;;;;;;19.83;14.73;;;;;;;7.08;40.43;101804.03;4136117;28;20503;-68
2022/03/20 01:52:11;;;;;;;23.00;15.05;;;;;;;7.17;40.39;101799.31;4161711;28;20037;-67
2022/03/20 01:54:15;;;;;;;23.00;15.43;;;;;;;7.10;39.94;101799.84;4165866;28;20065;-67
2022/03/20 01:56:18;;;;;;;18.77;13.10;;;;;;;7.07;40.39;101802.28;4133195;28;20050;-68
2022/03/20 01:58:20;;;;;;;20.73;14.70;;;;;;;7.06;40.48;101792.72;4137923;28;20061;-68
2022/03/20 02:00:25;;;;;;;20.98;14.70;;;;;;;7.12;40.77;101793.03;4159707;28;20096;-68
2022/03/20 02:02:28;;;;;;;22.63;15.70;;;;;;;7.25;40.29;101790.22;4136234;28;20484;-68
2022/03/20 02:04:34;;;;;;;21.67;15.60;;;;;;;7.14;39.73;101788.81;4164702;28;20049;-68
2022/03/20 02:06:38;;;;;;;23.88;15.82;;;;;;;7.17;39.85;101783.81;4151380;28;20050;-67
2022/03/20 02:08:41;;;;;;;21.63;14.38;;;;;;;7.15;39.82;101780.25;4150940;28;20049;-67
2022/03/20 02:10:44;;;;;;;21.88;15.07;;;;;;;7.10;39.91;101784.31;4149655;28;20463;-68
2022/03/20 02:12:46;;;;;;;20.90;15.02;;;;;;;7.21;39.29;101777.06;4140824;28;20074;-67
2022/03/20 02:14:50;;;;;;;19.52;13.73;;;;;;;7.13;39.20;101772.41;4161321;28;20041;-67
2022/03/20 02:16:53;;;;;;;23.48;14.73;;;;;;;7.14;39.32;101774.19;4165322;28;20049;-67
2022/03/20 02:18:56;;;;;;;23.13;16.05;;;;;;;7.18;39.13;101769.16;4151731;28;20092;-66
2022/03/20 02:21:03;;;;;;;23.83;16.02;;;;;;;7.06;39.35;101764.28;4162076;28;20045;-67
2022/03/20 02:23:05;;;;;;;22.58;15.10;;;;;;;7.11;38.78;101767.97;4163899;28;20045;-66
2022/03/20 02:25:10;;;;;;;22.17;14.68;;;;;;;7.13;38.68;101761.19;4149400;28;20042;-66
2022/03/20 02:27:15;;;;;;;23.05;15.52;;;;;;;7.11;38.57;101761.13;4153255;28;20045;-66
2022/03/20 02:29:18;;;;;;;25.73;15.50;;;;;;;7.17;38.53;101757.94;4162492;28;20041;-67
2022/03/20 02:31:22;;;;;;;21.27;14.77;;;;;;;7.15;39.34;101756.97;4144523;28;20512;-66
2022/03/20 02:33:27;;;;;;;23.92;15.88;;;;;;;7.24;38.77;101753.94;4155488;28;20049;-66
2022/03/20 02:35:33;;;;;;;21.13;15.18;;;;;;;7.25;38.64;101751.44;4163785;28;20045;-66
2022/03/20 02:37:41;;;;;;;25.05;15.10;;;;;;;7.30;37.80;101747.38;4157524;28;20044;-66
2022/03/20 02:39:44;;;;;;;21.30;15.05;;;;;;;7.21;38.39;101746.03;4158153;28;20033;-66
2022/03/20 02:41:48;;;;;;;23.77;15.90;;;;;;;7.32;38.24;101740.56;4148055;28;20064;-66
2022/03/20 02:43:51;;;;;;;25.35;15.85;;;;;;;7.30;37.81;101731.88;4142697;28;20104;-67
2022/03/20 02:45:54;;;;;;;21.70;15.73;;;;;;;7.39;37.76;101738.28;4152934;28;20120;-66
2022/03/20 02:47:59;;;;;;;20.55;15.07;;;;;;;7.24;38.25;101729.00;4159727;28;20554;-67
2022/03/20 02:50:06;;;;;;;20.65;14.65;;;;;;;7.21;38.10;101728.81;4160737;28;20531;-67
2022/03/20 02:52:09;;;;;;;25.70;17.38;;;;;;;7.22;38.18;101722.84;4158391;28;20099;-66
2022/03/20 02:54:14;;;;;;;28.67;16.88;;;;;;;7.31;37.99;101720.69;4155502;28;20061;-67
2022/03/20 02:56:16;;;;;;;22.52;16.23;;;;;;;7.34;37.83;101726.03;4149217;28;20050;-67
2022/03/20 02:58:19;;;;;;;21.63;15.35;;;;;;;7.25;37.69;101732.44;4161127;28;20088;-67
2022/03/20 03:00:25;;;;;;;22.25;14.27;;;;;;;7.11;38.70;101736.94;4158318;28;20069;-67
2022/03/20 03:02:30;;;;;;;22.83;15.07;;;;;;;7.08;39.72;101736.78;4158512;28;20454;-67
2022/03/20 03:04:33;;;;;;;;;;;;;;;6.89;39.70;101741.06;4165664;28;20056;-67
2022/03/20 03:06:37;;;;;;;22.65;14.55;;;;;;;6.96;39.77;101729.31;4159206;28;20019;-67
2022/03/20 03:11:01;;;;;;;21.05;14.52;;;;;;;7.09;39.29;101726.53;4164393;28;20038;-67
2022/03/20 03:13:03;;;;;;;30.45;16.08;;;;;;;7.04;39.04;101730.59;4152360;28;20463;-67
2022/03/20 03:15:20;;;;;;;21.85;15.82;;;;;;;7.02;39.44;101732.19;4159930;28;20092;-67
2022/03/20 03:17:27;;;;;;;22.33;14.82;;;;;;;6.99;40.04;101730.38;4168312;28;20036;-67
2022/03/20 03:19:30;;;;;;;20.05;14.82;;;;;;;6.98;40.40;101731.19;4170185;28;20045;-67
2022/03/20 03:21:33;;;;;;;19.52;14.55;;;;;;;7.03;39.74;101725.34;4160110;28;20045;-67
2022/03/20 03:23:37;;;;;;;20.17;14.13;;;;;;;7.04;40.07;101729.69;4146116;28;20046;-67
2022/03/20 03:25:40;;;;;;;24.27;16.88;;;;;;;7.03;40.07;101727.94;4148307;28;20042;-67
2022/03/20 03:27:44;;;;;;;21.30;14.35;;;;;;;6.99;40.48;101738.13;4149697;28;20065;-67
2022/03/20 03:29:47;;;;;;;26.60;14.53;;;;;;;6.92;40.93;101741.22;4150776;28;20058;-67
2022/03/20 03:31:49;;;;;;;22.90;14.77;;;;;;;6.86;41.73;101735.72;4164927;28;20099;-67
2022/03/20 03:36:12;;;;;;;22.17;16.52;;;;;;;6.75;42.32;101730.03;4162383;28;20117;-67
2022/03/20 03:38:17;;;;;;;23.15;15.85;;;;;;;6.74;42.77;101736.00;4146921;28;20049;-67
2022/03/20 03:40:19;;;;;;;21.98;14.95;;;;;;;6.72;42.97;101734.16;4155735;28;20041;-67
2022/03/20 03:42:22;;;;;;;22.58;16.63;;;;;;;6.73;43.01;101729.06;4149585;28;20105;-67
2022/03/20 03:44:27;;;;;;;24.23;15.57;;;;;;;6.77;42.60;101741.31;4159989;28;20104;-67
2022/03/20 03:46:29;;;;;;;26.10;17.33;;;;;;;6.72;42.21;101724.72;4156945;28;20077;-67
2022/03/20 03:48:32;;;;;;;25.02;16.55;;;;;;;6.74;42.20;101722.19;4160404;28;20042;-67
2022/03/20 03:50:40;;;;;;;25.88;17.25;;;;;;;6.78;40.94;101724.13;4157973;28;20547;-67
2022/03/20 03:52:43;;;;;;;25.35;17.05;;;;;;;6.71;40.95;101727.22;4147700;28;20115;-67
2022/03/20 03:54:46;;;;;;;22.83;16.05;;;;;;;6.71;41.01;101716.88;4161029;28;20396;-67
2022/03/20 03:56:49;;;;;;;21.95;16.55;;;;;;;6.73;41.04;101725.59;4157941;28;20500;-67
2022/03/20 03:58:52;;;;;;;23.48;16.65;;;;;;;6.76;41.18;101720.56;4151873;28;20041;-67
2022/03/20 04:00:56;;;;;;;24.30;14.85;;;;;;;6.79;41.28;101729.38;4158958;28;20095;-67
2022/03/20 04:02:59;;;;;;;25.75;16.00;;;;;;;6.77;40.99;101715.47;4164011;28;20072;-67
2022/03/20 04:05:03;;;;;;;24.55;16.60;;;;;;;6.73;41.26;101716.16;4163368;28;20099;-67
2022/03/20 04:07:06;;;;;;;23.27;16.23;;;;;;;6.75;41.19;101722.28;4161788;28;20037;-67
2022/03/20 04:09:09;;;;;;;23.50;15.65;;;;;;;6.69;41.46;101715.91;4148338;28;20171;-67
2022/03/20 04:11:13;;;;;;;24.20;15.80;;;;;;;6.73;41.19;101717.84;4159908;28;20042;-67
2022/03/20 04:13:16;;;;;;;23.23;16.27;;;;;;;6.69;41.47;101710.72;4159443;28;20053;-67
2022/03/20 04:15:23;;;;;;;25.55;16.67;;;;;;;6.67;42.05;101712.38;4157460;28;20107;-66
2022/03/20 04:17:28;;;;;;;27.30;17.35;;;;;;;6.54;42.45;101716.03;4154534;28;20080;-66
2022/03/20 04:19:30;;;;;;;27.27;16.27;;;;;;;6.51;42.33;101716.75;4153008;28;20042;-67
2022/03/20 04:21:34;;;;;;;22.45;15.80;;;;;;;6.49;42.81;101723.53;4154761;28;20065;-67
2022/03/20 04:23:48;;;;;;;22.88;15.50;;;;;;;6.49;43.33;101718.38;4162734;28;20044;-67
2022/03/20 04:25:50;;;;;;;24.17;16.70;;;;;;;6.50;43.36;101715.00;4163383;28;20049;-67
2022/03/20 04:27:56;;;;;;;23.58;16.60;;;;;;;6.43;43.41;101721.53;4136404;28;20038;-67
2022/03/20 04:29:58;;;;;;;19.48;15.02;;;;;;;6.34;43.91;101725.31;4158494;28;20053;-66
2022/03/20 04:32:01;;;;;;;24.65;16.17;;;;;;;6.33;43.85;101726.16;4149195;28;20870;-66
2022/03/20 04:34:05;;;;;;;24.50;15.30;;;;;;;6.36;44.14;101718.56;4158525;28;20044;-66
2022/03/20 04:36:08;;;;;;;22.37;16.23;;;;;;;6.27;44.41;101722.44;4159887;28;20049;-66
2022/03/20 04:38:11;;;;;;;22.60;16.83;;;;;;;6.24;44.99;101722.25;4157128;28;20041;-66
2022/03/20 04:40:14;;;;;;;20.98;15.25;;;;;;;6.23;44.95;101717.91;4152034;28;20411;-66
2022/03/20 04:42:17;;;;;;;22.15;15.98;;;;;;;6.23;44.95;101712.75;4147179;28;20567;-66
2022/03/20 04:44:19;;;;;;;25.08;16.75;;;;;;;6.23;45.04;101714.44;4153706;28;20052;-66
2022/03/20 04:46:23;;;;;;;25.55;18.20;;;;;;;6.21;44.91;101716.94;4141215;28;20104;-67
2022/03/20 05:00:10;;;;;;;28.58;19.40;;;;;;;6.31;45.11;101718.31;4148540;28;20037;-67
2022/03/20 05:02:12;;;;;;;25.10;18.63;;;;;;;6.31;45.19;101723.50;4159234;28;20064;-66
2022/03/20 05:04:15;;;;;;;30.52;19.92;;;;;;;6.33;45.27;101718.41;4151726;28;20050;-67
2022/03/20 05:06:19;;;;;;;34.53;21.33;;;;;;;6.31;45.87;101720.00;4148804;28;20045;-67
2022/03/20 05:08:23;;;;;;;31.20;21.33;;;;;;;6.26;46.50;101720.66;4163583;28;20525;-67
2022/03/20 05:15:07;;;;;;;29.38;20.98;;;;;;;6.14;48.68;101732.03;4158781;28;20106;-66
2022/03/20 05:17:10;;;;;;;37.05;21.20;;;;;;;6.10;48.49;101741.31;4151090;28;20042;-67
2022/03/20 05:19:13;;;;;;;30.48;20.00;;;;;;;6.01;49.17;101733.97;4162941;28;20060;-67
2022/03/20 05:21:16;;;;;;;29.85;19.25;;;;;;;5.92;49.21;101752.38;4167478;28;20454;-67
2022/03/20 05:23:20;;;;;;;29.70;19.45;;;;;;;5.75;49.18;101750.59;4161240;28;20182;-67
2022/03/20 05:25:22;;;;;;;25.45;17.70;;;;;;;5.76;48.86;101744.63;4161555;28;20042;-67
2022/03/20 05:27:25;;;;;;;27.02;18.00;;;;;;;5.84;48.73;101745.03;4166849;28;20483;-67
2022/03/20 05:29:28;;;;;;;29.05;20.90;;;;;;;5.95;48.35;101743.94;4147490;28;20401;-67
2022/03/20 05:31:31;;;;;;;23.63;15.95;;;;;;;6.03;48.24;101744.38;4160511;28;20092;-67
2022/03/20 05:33:34;;;;;;;28.58;19.48;;;;;;;6.09;48.32;101739.56;4165951;28;20061;-67
2022/03/20 05:35:37;;;;;;;29.63;20.98;;;;;;;6.15;48.27;101742.44;4157446;28;20057;-67
2022/03/20 05:37:39;;;;;;;31.25;20.15;;;;;;;6.22;48.19;101736.81;4158589;28;20048;-67
2022/03/20 05:39:45;;;;;;;28.92;18.95;;;;;;;6.23;48.37;101741.16;4153428;28;20452;-67
2022/03/20 05:41:48;;;;;;;26.25;18.42;;;;;;;6.22;48.49;101734.22;4151015;28;20486;-66
2022/03/20 05:43:52;;;;;;;25.40;18.50;;;;;;;6.14;48.75;101758.75;4157342;28;20049;-66
2022/03/20 05:45:58;;;;;;;27.92;19.58;;;;;;;5.92;49.19;101743.78;4142579;28;20077;-66
2022/03/20 05:48:01;;;;;;;24.73;18.65;;;;;;;5.95;49.52;101751.69;4163903;28;20041;-66
2022/03/20 05:50:05;;;;;;;27.50;20.95;;;;;;;6.01;49.17;101749.44;4132711;28;20417;-67
2022/03/20 05:52:08;;;;;;;25.27;19.02;;;;;;;6.01;49.39;101741.69;4150652;28;20038;-67
2022/03/20 05:54:11;;;;;;;27.52;20.70;;;;;;;6.07;49.17;101743.72;4150099;28;20057;-67
2022/03/20 05:58:35;;;;;;;28.75;20.30;;;;;;;6.13;48.93;101746.63;4161477;28;20061;-66
2022/03/20 06:00:41;;;;;;;28.75;20.75;;;;;;;6.17;49.12;101746.00;4165182;28;20037;-67
2022/03/20 06:02:44;;;;;;;26.60;18.52;;;;;;;6.15;48.91;101741.53;4156249;28;20045;-67
2022/03/20 06:04:47;;;;;;;29.05;19.92;;;;;;;6.20;48.99;101738.41;4165589;28;20069;-67
2022/03/20 06:06:50;;;;;;;27.55;20.23;;;;;;;6.20;48.72;101740.97;4155198;28;20119;-67
2022/03/20 06:08:53;;;;;;;26.45;17.70;;;;;;;6.15;49.08;101750.19;4159371;28;20095;-66
2022/03/20 06:10:56;;;;;;;25.77;17.73;;;;;;;6.13;49.00;101758.66;4160364;28;20046;-66
2022/03/20 06:13:01;;;;;;;26.83;18.25;;;;;;;6.20;48.54;101755.59;4150316;28;20038;-66
2022/03/20 06:15:05;;;;;;;28.23;19.75;;;;;;;6.42;48.30;101752.44;4163147;28;20049;-66
2022/03/20 06:17:09;;;;;;;30.35;20.63;;;;;;;6.36;47.91;101757.28;4162745;28;20057;-67
2022/03/20 06:19:13;;;;;;;27.20;17.98;;;;;;;6.34;48.71;101753.72;4165546;28;20460;-67
2022/03/20 06:21:16;;;;;;;27.35;20.02;;;;;;;6.42;48.39;101755.03;4157509;28;20384;-67
2022/03/20 06:23:19;;;;;;;33.13;20.35;;;;;;;6.61;47.72;101755.19;4164792;28;20041;-67
2022/03/20 06:25:22;;;;;;;28.25;20.48;;;;;;;6.63;47.01;101750.97;4165675;28;20562;-66
2022/03/20 06:27:25;;;;;;;30.02;20.33;;;;;;;6.83;46.70;101745.91;4150024;28;20042;-67
2022/03/20 06:29:29;;;;;;;27.77;18.25;;;;;;;6.76;46.73;101741.25;4150648;28;20484;-66
2022/03/20 06:31:32;;;;;;;29.10;19.97;;;;;;;6.84;45.97;101737.34;4158491;28;20447;-66
2022/03/20 06:33:35;;;;;;;30.20;21.20;;;;;;;6.97;46.24;101729.41;4164050;28;20303;-66
2022/03/20 06:35:38;;;;;;;26.20;19.55;;;;;;;6.92;45.94;101738.63;4133923;28;20089;-67
2022/03/20 06:37:42;;;;;;;28.40;21.15;;;;;;;6.96;46.07;101748.28;4148999;28;20120;-66
2022/03/20 06:39:45;;;;;;;31.38;20.02;;;;;;;6.92;46.45;101746.38;4151301;28;20053;-66
2022/03/20 06:41:48;;;;;;;31.65;20.60;;;;;;;6.98;46.60;101751.88;4182124;28;20045;-66
2022/03/20 06:43:51;;;;;;;29.08;19.42;;;;;;;7.07;46.78;101766.06;4150865;28;20524;-66
2022/03/20 06:45:56;;;;;;;26.30;18.85;;;;;;;7.18;46.67;101771.75;4164317;28;20477;-66
2022/03/20 06:48:18;;;;;;;24.20;17.55;;;;;;;7.12;47.29;101772.34;4165167;28;20045;-66
2022/03/20 06:50:27;;;;;;;29.05;20.23;;;;;;;7.28;46.87;101776.56;4165395;28;20120;-66
2022/03/20 06:52:30;;;;;;;26.43;19.93;;;;;;;7.23;47.88;101784.09;4149547;28;20045;-66
2022/03/20 06:54:32;;;;;;;26.83;19.77;;;;;;;7.24;46.97;101780.72;4156027;28;20054;-66
2022/03/20 06:56:35;;;;;;;28.55;20.10;;;;;;;7.28;46.79;101785.19;4140773;28;20120;-66
2022/03/20 06:58:39;;;;;;;31.92;21.38;;;;;;;7.32;47.04;101776.78;4164213;28;20045;-66
2022/03/20 07:00:42;;;;;;;26.63;19.75;;;;;;;7.37;47.08;101777.00;4154178;28;20479;-66
2022/03/20 07:02:47;;;;;;;28.95;20.17;;;;;;;7.46;46.60;101777.47;4144851;28;20589;-66
2022/03/20 07:04:51;;;;;;;;;;;;;;;7.31;47.49;101782.75;4156575;28;20053;-67
2022/03/20 07:06:53;;;;;;;26.65;19.35;;;;;;;7.37;46.43;101786.47;4140938;28;20013;-66
2022/03/20 07:08:59;;;;;;;29.02;20.30;;;;;;;7.47;46.79;101794.75;4150098;28;20038;-66
2022/03/20 07:11:03;;;;;;;29.10;20.40;;;;;;;7.55;46.53;101789.06;4157266;28;20067;-66
2022/03/20 07:15:26;;;;;;;32.97;19.52;;;;;;;7.66;46.29;101785.28;4152873;28;20474;-67
2022/03/20 07:17:30;;;;;;;27.25;20.13;;;;;;;7.71;46.68;101789.00;4132075;28;20058;-67
2022/03/20 07:19:35;;;;;;;28.73;20.15;;;;;;;7.75;46.97;101790.88;4171966;28;20040;-67
2022/03/20 07:21:37;;;;;;;29.20;21.23;;;;;;;7.82;46.05;101786.91;4160066;28;20041;-67
2022/03/20 07:23:40;;;;;;;25.77;19.33;;;;;;;7.88;45.85;101787.19;4157653;28;20041;-67
2022/03/20 07:30:25;;;;;;;30.98;19.58;;;;;;;8.10;45.89;101791.63;4158009;28;20041;-67
2022/03/20 07:32:27;;;;;;;29.13;20.08;;;;;;;8.10;45.50;101788.16;4141030;28;20098;-67
2022/03/20 07:34:30;;;;;;;32.15;23.35;;;;;;;8.13;45.19;101797.00;4158701;28;20050;-67
2022/03/20 07:36:35;;;;;;;29.67;19.88;;;;;;;8.19;45.47;101794.66;4148059;28;20042;-67
2022/03/20 07:38:37;;;;;;;31.35;22.08;;;;;;;8.27;45.51;101796.72;4131021;28;20045;-67
2022/03/20 07:40:40;;;;;;;27.27;20.35;;;;;;;8.28;46.15;101798.47;4149467;28;20092;-67
2022/03/20 07:42:43;;;;;;;28.55;21.20;;;;;;;8.31;45.72;101791.75;4157712;28;20049;-67
2022/03/20 07:44:47;;;;;;;25.30;19.13;;;;;;;8.43;45.35;101793.13;4161568;28;20056;-68
2022/03/20 07:46:52;;;;;;;31.23;20.83;;;;;;;8.51;45.15;101792.66;4155128;28;20029;-67
2022/03/20 07:48:55;;;;;;;31.23;21.55;;;;;;;8.63;45.48;101797.50;4151477;28;20033;-67
2022/03/20 07:50:59;;;;;;;30.05;20.83;;;;;;;8.72;45.35;101802.19;4154918;28;20041;-67
2022/03/20 07:53:04;;;;;;;31.40;21.02;;;;;;;8.80;44.37;101806.00;4159615;28;20045;-67
2022/03/20 07:55:07;;;;;;;;;;;;;;;8.65;45.30;101811.41;4155243;28;20557;-67
2022/03/20 07:57:10;;;;;;;33.72;21.83;;;;;;;8.80;45.78;101805.13;4164568;28;20391;-67
2022/03/20 07:59:13;;;;;;;29.73;20.90;;;;;;;8.90;44.77;101799.50;4146238;28;20068;-68
2022/03/20 08:01:15;;;;;;;32.13;23.83;;;;;;;8.99;44.60;101806.78;4164543;28;20050;-67
2022/03/20 08:03:24;;;;;;;30.05;22.88;;;;;;;9.01;44.78;101800.84;4140497;28;20113;-68
2022/03/20 08:05:27;;;;;;;30.77;21.40;;;;;;;8.95;44.67;101815.25;4163892;28;20047;-67
2022/03/20 08:07:35;;;;;;;28.75;19.65;;;;;;;8.97;44.64;101818.81;4164497;28;20042;-68
2022/03/20 08:09:39;;;;;;;30.85;22.15;;;;;;;9.11;44.46;101811.59;4164464;28;20034;-67
2022/03/20 08:11:42;;;;;;;27.33;20.50;;;;;;;9.20;44.33;101814.56;4164359;28;20046;-68
2022/03/20 08:13:45;;;;;;;30.60;22.10;;;;;;;9.28;44.43;101810.59;4157837;28;20657;-68
2022/03/20 08:15:48;;;;;;;29.83;22.75;;;;;;;9.29;44.27;101809.78;4157410;28;20072;-68
2022/03/20 08:17:50;;;;;;;33.00;22.63;;;;;;;9.35;43.55;101806.56;4158969;28;20088;-68
2022/03/20 08:19:53;;;;;;;28.08;21.25;;;;;;;9.39;44.16;101819.72;4163580;28;20041;-68
2022/03/20 08:21:58;;;;;;;33.42;21.73;;;;;;;9.50;43.74;101824.47;4163998;28;20506;-68
2022/03/20 08:24:02;;;;;;;28.67;19.48;;;;;;;9.53;43.76;101821.97;4163233;28;20502;-67
2022/03/20 08:26:08;;;;;;;28.70;21.37;;;;;;;9.51;43.88;101816.72;4148084;28;20042;-68
2022/03/20 08:28:11;;;;;;;32.03;21.70;;;;;;;9.55;43.98;101830.72;4149518;28;20658;-67
2022/03/20 08:30:15;;;;;;;30.67;22.10;;;;;;;9.61;43.91;101808.47;4160619;28;20380;-68
2022/03/20 08:32:19;;;;;;;29.83;21.40;;;;;;;9.68;43.85;101814.81;4161778;28;20041;-67
2022/03/20 08:34:25;;;;;;;30.20;21.23;;;;;;;9.66;43.94;101811.25;4151230;28;20121;-67
2022/03/20 08:36:28;;;;;;;28.92;21.60;;;;;;;9.66;44.11;101813.84;4141707;28;20491;-67
2022/03/20 08:38:31;;;;;;;29.63;22.30;;;;;;;9.68;43.81;101817.41;4168663;28;20052;-67
2022/03/20 08:40:33;;;;;;;30.60;21.98;;;;;;;9.70;44.43;101831.34;4162703;28;20068;-69
2022/03/20 08:42:37;;;;;;;31.70;22.13;;;;;;;9.74;43.76;101825.44;4161077;28;20389;-67
2022/03/20 08:44:40;;;;;;;27.13;20.45;;;;;;;9.76;44.18;101828.97;4157266;28;20047;-67
2022/03/20 08:46:43;;;;;;;27.30;20.00;;;;;;;9.77;44.36;101825.56;4162164;28;20388;-67
2022/03/20 08:48:46;;;;;;;34.95;22.13;;;;;;;9.82;44.49;101832.66;4143059;28;20071;-68
2022/03/20 08:50:49;;;;;;;31.25;22.25;;;;;;;9.78;43.64;101822.16;4149968;28;20046;-67
2022/03/20 08:52:53;;;;;;;29.67;22.38;;;;;;;9.73;43.62;101823.66;4142715;28;20042;-68
2022/03/20 08:54:56;;;;;;;26.05;21.15;;;;;;;9.77;43.91;101822.97;4153530;28;20044;-68
2022/03/20 08:57:01;;;;;;;28.38;20.20;;;;;;;9.76;43.71;101826.38;4161422;28;20414;-67
2022/03/20 08:59:06;;;;;;;28.05;19.88;;;;;;;9.75;44.03;101827.22;4149009;28;20050;-68
2022/03/20 09:01:08;;;;;;;;;;;;;;;9.67;44.25;101831.22;4149546;28;20531;-68
2022/03/20 09:03:13;;;;;;;27.90;19.85;;;;;;;9.72;44.94;101834.00;4164414;28;19936;-68
2022/03/20 09:05:16;;;;;;;31.55;21.63;;;;;;;9.74;45.10;101838.44;4140781;28;20058;-68
2022/03/20 09:07:19;;;;;;;29.83;22.23;;;;;;;9.88;44.88;101835.50;4167008;28;20185;-68
2022/03/20 09:09:23;;;;;;;29.33;21.58;;;;;;;9.89;44.68;101829.47;4146090;28;20041;-68
2022/03/20 09:11:26;;;;;;;28.38;21.70;;;;;;;9.96;44.51;101834.09;4146248;28;20053;-68
2022/03/20 09:13:28;;;;;;;31.13;22.10;;;;;;;10.03;44.62;101825.72;4163277;28;20061;-68
2022/03/20 09:15:33;;;;;;;29.42;21.10;;;;;;;10.06;44.44;101828.41;4163325;28;20042;-68
2022/03/20 09:19:57;;;;;;;27.13;20.83;;;;;;;10.04;44.03;101832.66;4158494;28;20565;-68
2022/03/20 09:22:00;;;;;;;34.38;22.75;;;;;;;10.22;43.87;101832.50;4163825;28;20053;-68
2022/03/20 09:24:04;;;;;;;26.88;20.05;;;;;;;10.24;43.63;101837.75;4162313;28;20037;-68
2022/03/20 09:26:07;;;;;;;28.27;21.25;;;;;;;10.25;44.57;101837.78;4166022;28;20083;-68
2022/03/20 09:28:12;;;;;;;30.05;20.33;;;;;;;10.36;44.28;101839.94;4166916;28;20049;-68
2022/03/20 09:30:16;;;;;;;26.85;19.30;;;;;;;10.38;44.75;101839.19;4156158;28;20124;-68
2022/03/20 09:32:20;;;;;;;29.17;21.75;;;;;;;10.44;44.38;101843.69;4162128;28;20045;-68
2022/03/20 09:34:23;;;;;;;30.35;22.15;;;;;;;10.48;44.52;101842.97;4164314;28;20224;-68
2022/03/20 09:36:26;;;;;;;28.23;21.60;;;;;;;10.54;44.40;101847.53;4166253;28;20041;-68
2022/03/20 09:38:29;;;;;;;33.03;22.45;;;;;;;10.50;44.16;101864.75;4164548;28;20049;-68
2022/03/20 09:40:35;;;;;;;27.58;21.30;;;;;;;10.54;44.43;101861.44;4161388;28;20461;-68
2022/03/20 09:42:38;;;;;;;30.05;20.30;;;;;;;10.58;45.05;101865.03;4164975;28;20523;-68
2022/03/20 09:44:41;;;;;;;29.27;20.77;;;;;;;10.67;44.75;101856.66;4132683;28;20043;-68
2022/03/20 09:46:45;;;;;;;31.17;22.23;;;;;;;10.77;45.24;101866.56;4153093;28;20400;-71
2022/03/20 09:48:51;;;;;;;28.98;21.23;;;;;;;10.80;44.22;101874.47;4159671;28;20495;-68
2022/03/20 09:50:54;;;;;;;29.45;22.98;;;;;;;10.95;44.68;101868.94;4160247;28;20103;-67
2022/03/20 09:52:57;;;;;;;29.50;22.35;;;;;;;10.83;44.67;101875.50;4165778;28;20450;-67
2022/03/20 09:55:00;;;;;;;30.17;22.08;;;;;;;10.82;44.14;101881.53;4164194;28;20041;-67
2022/03/20 09:57:04;;;;;;;28.25;21.33;;;;;;;10.87;44.17;101878.22;4166440;28;20495;-67
2022/03/20 09:59:07;;;;;;;26.92;19.90;;;;;;;10.90;43.80;101888.72;4135802;28;20055;-67
2022/03/20 10:01:10;;;;;;;29.58;21.88;;;;;;;10.95;44.46;101889.75;4149920;28;20053;-66